Whittemore, Iowa
Current Conditions -  °F | °C
As of 7:15 PM on Wednesday 26 Nov 2014 (Local Time) from KAXA Reporting Station
Overcast Overcast  
Wind Chill:   Ceiling: 1800
Heat Index: 18°   Visibility: 10mi
Dew Point: 14°   Wind: 16mph
Humidity: 86%   Direction: 340°NNW
Pressure: 30.31"   Gusts: 25mph
Location:  43.06°N, 94.43°W
Report Text: KAXA 270115Z AUTO 34014G22KT 10SM OVC018 M08/M10 A3031 RMK AO2
Loading
Personal Weather Stations






























Interactive Weather Map New forecast layout! Learn more

10-Day Weather Forecast

Advertisements
Track Severe Weather on mobile